Time;durP1;ratioP1;P1;durP2;ratioP2;P2;SDS_P1;SDS_P2;PMS_P1;PMS_P2;Temp;Humidity;BMP_temperature;BMP_pressure;BME280_temperature;BME280_humidity;BME280_pressure;Samples;Min_cycle;Max_cycle;Signal;HPM_P1;HPM_P2
2021/06/08 00:01:22;;;;;;;10.65;3.20;;;;;;;14.89;98.79;99578.91;1769295;81;21371;-77
2021/06/08 00:04:27;;;;;;;7.87;3.77;;;;;;;14.95;98.87;99575.80;1770567;81;21304;-78
2021/06/08 00:07:33;;;;;;;20.30;3.67;;;;;;;14.98;98.87;99577.58;1769032;81;21220;-78
2021/06/08 00:10:38;;;;;;;12.70;3.47;;;;;;;15.03;98.66;99574.16;1769655;81;21760;-77
2021/06/08 00:13:44;;;;;;;14.23;3.55;;;;;;;15.06;98.32;99566.30;1770471;81;21188;-78
2021/06/08 00:16:49;;;;;;;14.80;3.98;;;;;;;15.07;97.97;99567.98;1770328;81;21296;-77
2021/06/08 00:19:54;;;;;;;13.68;3.62;;;;;;;15.12;98.05;99569.23;1770345;81;21236;-78
2021/06/08 00:22:59;;;;;;;7.83;3.90;;;;;;;15.12;97.68;99579.70;1770613;81;21180;-78
2021/06/08 00:26:05;;;;;;;11.40;3.80;;;;;;;15.11;97.34;99578.56;1770468;81;21165;-77
2021/06/08 00:29:11;;;;;;;12.85;3.60;;;;;;;15.11;97.17;99586.83;1768971;81;21403;-78
2021/06/08 00:32:09;;;;;;;12.18;3.58;;;;;;;15.11;97.17;99585.45;1768883;81;21196;-78
2021/06/08 00:35:15;;;;;;;14.73;4.05;;;;;;;15.09;96.96;99586.48;1770424;81;21312;-78
2021/06/08 00:38:21;;;;;;;10.20;3.65;;;;;;;15.08;96.91;99568.83;1770534;81;21295;-78
2021/06/08 00:41:44;;;;;;;9.98;3.67;;;;;;;15.11;97.34;99573.89;1769549;81;21355;-78
2021/06/08 00:44:49;;;;;;;8.55;3.98;;;;;;;15.12;97.43;99569.23;1769245;81;21330;-78
2021/06/08 00:47:55;;;;;;;10.88;4.40;;;;;;;15.14;97.76;99564.33;1770430;81;21188;-78
2021/06/08 00:51:01;;;;;;;14.58;4.60;;;;;;;15.16;97.72;99575.45;1769885;81;21228;-78
2021/06/08 00:54:09;;;;;;;10.28;4.28;;;;;;;15.16;97.60;99567.72;1795937;79;21316;-78
2021/06/08 00:57:15;;;;;;;16.60;4.60;;;;;;;15.11;97.51;99567.55;1802983;79;22387;-77
2021/06/08 01:00:21;;;;;;;14.10;5.10;;;;;;;15.08;97.62;99575.71;1802939;79;21814;-78
2021/06/08 01:03:27;;;;;;;15.43;4.90;;;;;;;15.04;97.79;99568.95;1801354;79;21194;-78
2021/06/08 01:06:31;;;;;;;18.60;5.08;;;;;;;15.05;97.99;99568.72;1801324;79;21280;-78
2021/06/08 01:09:37;;;;;;;17.92;5.37;;;;;;;15.05;98.22;99563.21;1802840;79;21831;-77
2021/06/08 01:12:43;;;;;;;11.33;5.55;;;;;;;15.06;98.43;99557.20;1802789;79;21253;-77
2021/06/08 01:15:49;;;;;;;13.80;5.62;;;;;;;15.04;98.56;99554.65;1802890;79;21351;-78
2021/06/08 01:18:55;;;;;;;14.73;5.97;;;;;;;15.04;98.87;99552.43;1802867;79;21271;-78
2021/06/08 01:22:00;;;;;;;21.90;5.95;;;;;;;15.01;98.91;99557.88;1801948;79;21430;-78
2021/06/08 01:25:06;;;;;;;13.38;5.75;;;;;;;14.97;98.87;99563.52;1802868;79;21296;-78
2021/06/08 01:28:11;;;;;;;12.98;5.60;;;;;;;14.91;99.04;99557.50;1802799;79;21335;-78
2021/06/08 01:31:19;;;;;;;21.15;5.60;;;;;;;14.90;99.46;99563.23;1802686;79;21320;-78
2021/06/08 01:34:24;;;;;;;13.15;5.70;;;;;;;14.89;99.79;99567.91;1802894;79;21296;-77
2021/06/08 01:37:31;;;;;;;13.05;5.30;;;;;;;14.89;99.91;99562.93;1802435;79;21319;-78
2021/06/08 01:40:36;;;;;;;14.20;5.95;;;;;;;14.87;99.96;99565.92;1802854;79;21704;-78
2021/06/08 01:43:43;;;;;;;10.68;5.40;;;;;;;14.86;99.85;99568.34;1802343;79;21381;-78
2021/06/08 01:46:48;;;;;;;14.75;6.12;;;;;;;14.83;99.80;99566.05;1802775;79;21292;-77
2021/06/08 01:49:54;;;;;;;13.58;6.28;;;;;;;14.78;99.76;99574.97;1802851;79;21355;-78
2021/06/08 01:53:16;;;;;;;12.70;5.62;;;;;;;14.75;100.00;99574.56;1801351;79;21677;-78
2021/06/08 01:56:23;;;;;;;21.15;6.70;;;;;;;14.74;100.00;99580.61;1775115;81;21360;-78
2021/06/08 01:59:48;;;;;;;13.70;6.00;;;;;;;14.75;100.00;99580.91;1775201;81;21728;-78
2021/06/08 02:02:59;;;;;;;15.43;5.78;;;;;;;14.72;100.00;99588.75;1773981;81;21308;-77
2021/06/08 02:06:27;;;;;;;18.87;6.22;;;;;;;14.73;100.00;99585.80;1775181;81;21255;-76
2021/06/08 02:09:54;;;;;;;18.37;6.30;;;;;;;14.77;100.00;99587.05;1773549;81;21275;-78
2021/06/08 02:13:16;;;;;;;18.23;6.37;;;;;;;14.75;100.00;99590.55;1773837;81;21224;-78
2021/06/08 02:16:27;;;;;;;15.93;5.85;;;;;;;14.73;100.00;99593.22;1764770;81;21307;-77
2021/06/08 02:19:33;;;;;;;15.55;5.92;;;;;;;14.71;100.00;99590.67;1775014;81;21292;-77
2021/06/08 02:22:38;;;;;;;19.57;6.08;;;;;;;14.72;100.00;99590.13;1774200;81;21298;-77
2021/06/08 02:25:44;;;;;;;14.43;5.30;;;;;;;14.75;100.00;99586.95;1775077;81;21347;-77
2021/06/08 02:28:50;;;;;;;14.90;6.12;;;;;;;14.76;100.00;99584.50;1773454;81;21169;-78
2021/06/08 02:31:55;;;;;;;13.75;6.12;;;;;;;14.78;100.00;99583.23;1773326;81;21232;-78
2021/06/08 02:35:01;;;;;;;13.35;5.65;;;;;;;14.78;100.00;99581.85;1774988;81;21204;-77
2021/06/08 02:38:06;;;;;;;13.83;6.03;;;;;;;14.83;100.00;99587.53;1774848;81;21410;-77
2021/06/08 02:41:12;;;;;;;16.10;6.65;;;;;;;14.89;100.00;99589.93;1774826;81;21201;-78
2021/06/08 02:44:18;;;;;;;10.85;5.22;;;;;;;14.94;100.00;99592.86;1774861;81;21335;-77
2021/06/08 02:47:26;;;;;;;7.97;4.47;;;;;;;14.96;100.00;99594.00;1774867;81;21224;-77
2021/06/08 02:50:31;;;;;;;7.20;4.62;;;;;;;14.97;99.65;99597.09;1775917;81;21325;-77
2021/06/08 02:53:36;;;;;;;10.70;5.00;;;;;;;14.98;99.22;99593.27;1744956;82;21194;-77
2021/06/08 02:56:42;;;;;;;12.25;5.28;;;;;;;15.02;99.08;99604.15;1782606;79;22579;-77
2021/06/08 02:59:48;;;;;;;8.93;4.80;;;;;;;15.08;98.87;99606.00;1768089;81;21911;-77
2021/06/08 03:02:53;;;;;;;11.63;4.80;;;;;;;15.18;98.65;99613.77;1770471;79;21287;-78
2021/06/08 03:06:09;;;;;;;14.18;5.00;;;;;;;15.27;98.42;99611.90;1771034;81;21299;-78
2021/06/08 03:09:15;;;;;;;11.33;4.65;;;;;;;15.40;98.33;99616.47;1770494;81;21370;-78
2021/06/08 03:12:21;;;;;;;11.73;5.00;;;;;;;15.54;98.23;99615.28;1772009;81;21736;-78
2021/06/08 03:15:26;;;;;;;9.75;3.95;;;;;;;15.74;97.80;99615.66;1765956;81;21906;-77
2021/06/08 03:18:35;;;;;;;8.80;4.05;;;;;;;16.04;97.76;99626.80;1765886;81;21260;-78
2021/06/08 03:21:44;;;;;;;7.55;3.85;;;;;;;16.36;97.13;99628.89;1765649;81;21198;-78
2021/06/08 03:24:49;;;;;;;7.90;4.30;;;;;;;16.65;95.49;99630.55;1768733;81;21307;-77
2021/06/08 03:27:54;;;;;;;6.50;3.30;;;;;;;16.90;94.20;99633.23;1769760;81;21354;-78
2021/06/08 03:31:00;;;;;;;6.75;3.35;;;;;;;17.14;92.72;99626.71;1769393;81;21844;-78
2021/06/08 03:34:05;;;;;;;5.40;3.40;;;;;;;17.49;91.36;99628.70;1768098;81;21882;-78
2021/06/08 03:37:11;;;;;;;9.55;3.70;;;;;;;17.86;88.79;99637.13;1769863;79;21287;-77
2021/06/08 03:40:17;;;;;;;11.53;3.65;;;;;;;18.03;86.89;99628.95;1768106;81;22001;-78
2021/06/08 03:43:23;;;;;;;7.90;3.52;;;;;;;18.22;85.66;99626.05;1768813;81;21335;-77
2021/06/08 03:46:35;;;;;;;7.25;3.20;;;;;;;18.49;84.46;99632.75;1769421;81;21299;-78
2021/06/08 03:49:40;;;;;;;5.65;2.65;;;;;;;18.84;82.94;99634.04;1769339;81;21780;-78
2021/06/08 03:52:51;;;;;;;8.08;2.92;;;;;;;19.17;81.38;99630.22;1769396;81;21883;-78
2021/06/08 03:56:00;;;;;;;7.95;2.80;;;;;;;19.49;79.95;99627.75;1767595;81;21222;-78
2021/06/08 03:59:04;;;;;;;4.50;2.95;;;;;;;19.73;78.02;99634.84;1782426;79;21261;-77
2021/06/08 04:02:10;;;;;;;5.87;2.98;;;;;;;19.87;75.94;99631.18;1802777;79;21288;-78
2021/06/08 04:05:16;;;;;;;3.65;2.50;;;;;;;19.93;75.46;99636.25;1802712;79;21169;-78
2021/06/08 04:08:21;;;;;;;6.00;3.20;;;;;;;20.00;75.27;99640.55;1803377;79;21232;-78
2021/06/08 04:11:27;;;;;;;6.17;2.60;;;;;;;20.01;75.37;99645.00;1801252;79;21302;-79
2021/06/08 04:14:33;;;;;;;3.98;2.60;;;;;;;20.07;75.31;99640.36;1770176;81;21263;-78
2021/06/08 04:17:39;;;;;;;4.70;2.50;;;;;;;20.11;74.80;99642.92;1771242;81;21846;-79
2021/06/08 04:20:45;;;;;;;5.00;2.87;;;;;;;20.06;74.71;99638.13;1788133;79;21248;-79
2021/06/08 04:23:49;;;;;;;7.47;2.35;;;;;;;20.04;75.39;99637.56;1803238;79;21283;-78
2021/06/08 04:26:54;;;;;;;3.37;2.40;;;;;;;20.10;74.50;99640.70;1793353;79;21293;-79
2021/06/08 04:29:58;;;;;;;4.17;2.70;;;;;;;20.18;74.88;99640.79;1748030;81;21173;-78
2021/06/08 04:33:04;;;;;;;5.53;2.47;;;;;;;20.19;74.00;99640.27;1796386;79;21275;-79
2021/06/08 04:36:10;;;;;;;13.22;3.20;;;;;;;20.16;74.36;99638.83;1753880;81;21284;-78
2021/06/08 04:39:15;;;;;;;5.80;2.87;;;;;;;20.17;74.10;99630.23;1794194;79;21300;-79
2021/06/08 04:42:22;;;;;;;10.43;3.92;;;;;;;20.32;74.31;99631.55;1783858;79;21161;-78
2021/06/08 04:45:28;;;;;;;11.38;4.60;;;;;;;20.48;73.81;99638.20;1797630;79;21338;-78
2021/06/08 04:48:32;;;;;;;7.90;3.47;;;;;;;20.55;73.48;99637.44;1782710;79;21338;-79
2021/06/08 04:51:38;;;;;;;6.45;2.87;;;;;;;20.62;74.03;99636.72;1742087;81;21285;-79
2021/06/08 04:54:43;;;;;;;7.92;4.60;;;;;;;20.79;74.36;99636.63;1795664;79;21346;-78
2021/06/08 04:57:50;;;;;;;17.50;6.05;;;;;;;20.99;73.02;99637.44;1783813;79;21177;-79
2021/06/08 05:01:38;;;;;;;10.20;6.28;;;;;;;21.15;72.06;99644.27;1790229;79;21279;-79
2021/06/08 05:04:46;;;;;;;14.70;6.35;;;;;;;21.34;71.44;99636.44;1786671;79;21295;-78
2021/06/08 05:08:01;;;;;;;8.95;5.28;;;;;;;21.65;69.98;99638.95;1766506;79;21169;-78
2021/06/08 05:11:26;;;;;;;11.30;5.65;;;;;;;21.84;69.54;99641.33;1777647;79;21629;-78
2021/06/08 05:14:33;;;;;;;9.60;5.42;;;;;;;21.86;69.07;99630.20;1746492;79;21307;-78
2021/06/08 05:17:38;;;;;;;14.78;6.62;;;;;;;21.95;68.79;99634.72;1792242;79;21315;-78
2021/06/08 05:20:47;;;;;;;13.45;6.60;;;;;;;22.03;68.32;99634.23;1787384;79;22241;-78
2021/06/08 05:23:54;;;;;;;11.48;5.60;;;;;;;22.06;67.90;99630.05;1783854;79;21938;-79
2021/06/08 05:27:00;;;;;;;10.30;5.45;;;;;;;22.22;67.96;99637.45;1747709;80;21386;-78
2021/06/08 05:30:04;;;;;;;12.05;6.17;;;;;;;22.35;66.91;99636.97;1783342;79;21177;-79
2021/06/08 05:33:10;;;;;;;12.30;6.80;;;;;;;22.40;66.11;99643.13;1782082;79;21303;-80
2021/06/08 05:36:16;;;;;;;8.63;5.17;;;;;;;22.36;65.31;99646.17;1784030;79;21197;-80
2021/06/08 05:39:21;;;;;;;9.83;5.60;;;;;;;22.28;65.08;99646.11;1783466;79;21161;-80
2021/06/08 05:42:26;;;;;;;10.90;6.42;;;;;;;22.28;64.98;99646.67;1787363;79;21772;-80
2021/06/08 05:45:32;;;;;;;12.85;7.12;;;;;;;22.30;65.61;99641.66;1787829;79;22749;-79
2021/06/08 05:48:39;;;;;;;16.48;8.00;;;;;;;22.36;64.80;99644.77;1784400;79;21347;-79
2021/06/08 05:51:45;;;;;;;18.45;9.20;;;;;;;22.41;64.71;99643.41;1724136;82;21312;-78
2021/06/08 05:54:51;;;;;;;18.62;8.83;;;;;;;22.30;64.47;99640.26;1786259;79;21322;-78
2021/06/08 05:57:59;;;;;;;16.15;8.63;;;;;;;22.22;65.07;99639.40;1779859;79;21944;-77
2021/06/08 06:01:06;;;;;;;21.90;8.73;;;;;;;22.28;65.25;99638.31;1788736;79;22265;-78
2021/06/08 06:04:11;;;;;;;14.47;5.83;;;;;;;22.37;63.99;99642.27;1780979;79;21292;-77
2021/06/08 06:07:16;;;;;;;9.43;4.65;;;;;;;22.43;62.95;99645.36;1747226;81;21709;-78
2021/06/08 06:10:22;;;;;;;10.65;6.12;;;;;;;22.38;59.77;99642.55;1783313;79;21275;-78
2021/06/08 06:13:24;;;;;;;13.13;7.10;;;;;;;22.24;60.98;99650.54;1785516;79;21145;-78
2021/06/08 06:16:18;;;;;;;20.92;8.98;;;;;;;22.15;62.07;99644.63;1784641;79;21318;-79
2021/06/08 06:19:23;;;;;;;;;;;;;;;22.19;62.50;99652.73;1789801;79;21169;-78
2021/06/08 06:22:28;;;;;;;19.20;9.65;;;;;;;22.15;62.04;99650.20;1788709;79;20268;-77
2021/06/08 06:25:33;;;;;;;19.92;10.88;;;;;;;22.04;62.67;99647.04;1749051;81;21867;-77
2021/06/08 06:28:41;;;;;;;22.62;14.73;;;;;;;22.12;63.57;99647.97;1780135;79;21219;-78
2021/06/08 06:31:56;;;;;;;32.85;18.35;;;;;;;22.14;62.56;99649.92;1753066;81;21267;-78
2021/06/08 06:35:02;;;;;;;30.08;16.90;;;;;;;22.09;63.21;99647.08;1790999;79;21594;-78
2021/06/08 06:38:06;;;;;;;27.13;16.80;;;;;;;22.05;63.00;99644.53;1787929;79;21300;-77
2021/06/08 06:41:16;;;;;;;36.58;18.50;;;;;;;21.99;62.43;99640.05;1751120;81;21287;-78
2021/06/08 06:44:21;;;;;;;36.08;19.20;;;;;;;21.99;63.44;99638.66;1787201;79;21565;-78
2021/06/08 06:47:26;;;;;;;43.13;22.20;;;;;;;22.12;63.49;99647.97;1782832;79;21177;-78
2021/06/08 06:50:31;;;;;;;45.38;24.87;;;;;;;22.25;62.30;99647.20;1786719;79;21275;-78
2021/06/08 06:53:37;;;;;;;40.78;25.60;;;;;;;22.43;61.90;99638.39;1750055;80;21206;-79
2021/06/08 06:56:56;;;;;;;38.78;20.90;;;;;;;22.59;61.50;99635.98;1786627;79;21272;-79
2021/06/08 07:00:08;;;;;;;36.30;22.60;;;;;;;22.69;61.31;99646.34;1786076;79;21219;-79
2021/06/08 07:03:14;;;;;;;34.33;19.82;;;;;;;22.70;60.35;99650.23;1788288;79;21985;-79
2021/06/08 07:06:19;;;;;;;33.73;19.92;;;;;;;22.78;60.04;99649.44;1794453;79;21319;-80
2021/06/08 07:09:24;;;;;;;31.25;17.65;;;;;;;22.94;59.68;99647.01;1780646;79;21168;-79
2021/06/08 07:12:30;;;;;;;33.08;19.07;;;;;;;23.07;58.73;99648.45;1770544;79;21209;-79
2021/06/08 07:15:43;;;;;;;24.57;15.13;;;;;;;23.15;58.23;99645.97;1772631;79;22241;-79
2021/06/08 07:18:55;;;;;;;25.48;16.30;;;;;;;23.30;56.99;99630.38;1791364;79;21602;-79
2021/06/08 07:22:01;;;;;;;27.32;16.90;;;;;;;23.39;56.86;99628.72;1784948;79;21267;-78
2021/06/08 07:25:11;;;;;;;31.77;16.48;;;;;;;23.52;57.08;99630.10;1792897;79;21307;-82
2021/06/08 07:28:17;;;;;;;26.12;14.65;;;;;;;23.60;55.57;99624.80;1791018;79;21546;-80
2021/06/08 07:31:27;;;;;;;29.37;14.53;;;;;;;23.64;55.23;99617.59;1789512;79;21181;-77
2021/06/08 07:34:37;;;;;;;20.82;12.58;;;;;;;23.64;54.81;99624.56;1792190;79;22536;-77
2021/06/08 07:37:42;;;;;;;;;;;;;;;23.71;54.85;99626.53;1792649;79;21252;-77
2021/06/08 07:40:49;;;;;;;20.10;13.25;;;;;;;23.73;54.44;99622.05;1790625;79;20303;-77
2021/06/08 07:44:01;;;;;;;30.02;16.20;;;;;;;23.71;55.26;99624.27;1790936;79;21180;-78
2021/06/08 07:47:08;;;;;;;27.10;13.45;;;;;;;23.84;54.59;99611.71;1756276;81;22513;-78
2021/06/08 07:50:16;;;;;;;26.63;16.17;;;;;;;24.08;54.37;99614.19;1760811;81;21172;-79
2021/06/08 07:53:28;;;;;;;28.67;16.60;;;;;;;24.21;52.39;99608.58;1730845;82;21209;-78
2021/06/08 07:56:33;;;;;;;21.83;14.23;;;;;;;24.20;52.02;99611.10;1729760;81;22435;-78
2021/06/08 07:59:39;;;;;;;34.38;17.77;;;;;;;24.30;51.96;99608.84;1734220;81;21225;-78
2021/06/08 08:02:50;;;;;;;35.45;18.60;;;;;;;24.48;51.42;99605.46;1710349;82;21310;-78
2021/06/08 08:05:53;;;;;;;27.98;17.92;;;;;;;24.68;52.02;99604.53;1713556;83;21316;-78
2021/06/08 08:09:00;;;;;;;24.45;16.00;;;;;;;24.90;53.47;99600.80;1707214;82;21621;-79
2021/06/08 08:12:04;;;;;;;21.02;14.20;;;;;;;25.11;51.50;99608.53;1713731;83;21381;-78
2021/06/08 08:15:10;;;;;;;16.52;10.53;;;;;;;25.19;50.25;99600.09;1712958;83;21945;-80
2021/06/08 08:18:18;;;;;;;20.17;11.65;;;;;;;25.26;48.66;99599.19;1710990;83;21222;-78
2021/06/08 08:21:25;;;;;;;22.07;14.35;;;;;;;25.26;47.94;99599.19;1713806;83;21311;-79
2021/06/08 08:24:30;;;;;;;29.10;14.50;;;;;;;25.27;48.41;99605.66;1689883;83;21200;-78
2021/06/08 08:27:36;;;;;;;17.85;11.05;;;;;;;25.35;50.08;99602.22;1711099;83;21573;-78
2021/06/08 08:30:41;;;;;;;13.85;8.88;;;;;;;25.50;51.16;99600.69;1741091;81;23031;-78
2021/06/08 08:33:46;;;;;;;15.05;9.85;;;;;;;25.57;48.94;99601.20;1746981;81;21621;-77
2021/06/08 08:36:51;;;;;;;13.43;9.15;;;;;;;25.71;48.61;99596.61;1743176;80;21337;-79
2021/06/08 08:39:57;;;;;;;13.22;7.12;;;;;;;25.81;48.49;99593.47;1746554;81;21189;-78
2021/06/08 08:43:18;;;;;;;10.23;6.08;;;;;;;25.84;48.11;99585.33;1747405;81;22467;-83
2021/06/08 08:46:24;;;;;;;6.67;5.30;;;;;;;26.01;49.11;99580.66;1743549;80;21329;-78
2021/06/08 08:49:23;;;;;;;7.92;4.00;;;;;;;26.10;48.85;99577.48;1741942;80;21874;-77
2021/06/08 08:52:29;;;;;;;5.58;3.55;;;;;;;26.02;47.03;99573.95;1745666;80;21762;-77
2021/06/08 08:55:36;;;;;;;6.92;4.00;;;;;;;25.82;47.56;99576.93;1749941;81;21379;-78
2021/06/08 08:58:41;;;;;;;3.98;2.67;;;;;;;25.63;49.20;99580.42;1748362;81;21288;-78
2021/06/08 09:01:49;;;;;;;3.17;2.55;;;;;;;25.52;48.04;99584.45;1749390;80;21181;-78
2021/06/08 09:04:55;;;;;;;2.17;1.70;;;;;;;25.28;48.54;99587.73;1748670;80;21583;-78
2021/06/08 09:08:00;;;;;;;4.30;1.72;;;;;;;25.15;49.49;99592.00;1748611;80;21847;-79
2021/06/08 09:11:07;;;;;;;3.62;1.57;;;;;;;24.98;49.47;99593.20;1753103;81;21843;-80
2021/06/08 09:14:18;;;;;;;5.55;1.00;;;;;;;24.83;50.20;99593.27;1747890;81;21265;-79
2021/06/08 09:17:26;;;;;;;1.52;1.17;;;;;;;24.76;50.08;99586.34;1751500;80;21747;-78
2021/06/08 09:20:34;;;;;;;1.77;0.95;;;;;;;24.68;49.50;99588.59;1751199;81;21982;-80
2021/06/08 09:23:40;;;;;;;1.95;0.90;;;;;;;24.59;50.12;99577.73;1748469;80;21355;-79
2021/06/08 09:27:06;;;;;;;1.80;0.90;;;;;;;24.44;49.87;99576.41;1748104;80;21314;-78
2021/06/08 09:30:21;;;;;;;1.82;1.12;;;;;;;24.30;50.10;99571.12;1750576;81;21288;-79
2021/06/08 09:33:38;;;;;;;1.50;1.15;;;;;;;24.16;50.93;99568.08;1751077;80;21651;-78
2021/06/08 09:36:43;;;;;;;3.37;0.80;;;;;;;24.05;51.59;99556.11;1750322;80;21355;-82
2021/06/08 09:39:54;;;;;;;2.47;1.12;;;;;;;24.03;52.68;99549.95;1745389;81;21309;-78
2021/06/08 09:43:15;;;;;;;1.05;0.90;;;;;;;24.02;52.32;99542.70;1751356;81;21351;-78
2021/06/08 09:46:21;;;;;;;2.45;0.80;;;;;;;24.07;51.67;99552.46;1746013;81;21307;-78
2021/06/08 09:49:42;;;;;;;1.98;1.07;;;;;;;24.22;51.11;99556.59;1747442;80;21311;-77
2021/06/08 09:52:45;;;;;;;;;;;;;;;24.39;51.35;99556.86;1751552;81;21209;-77
2021/06/08 09:56:06;;;;;;;5.60;1.00;;;;;;;24.58;50.22;99559.86;1748101;81;20284;-78
2021/06/08 09:59:11;;;;;;;1.95;1.07;;;;;;;24.67;50.53;99557.56;1747459;81;21290;-79
2021/06/08 10:05:51;;;;;;;2.45;0.70;;;;;;;24.61;51.88;99550.91;1764044;80;21319;-78
2021/06/08 10:09:10;;;;;;;2.30;0.80;;;;;;;24.31;51.00;99551.83;1736222;81;21307;-78
2021/06/08 10:12:19;;;;;;;1.67;0.80;;;;;;;24.19;51.31;99557.75;1764930;80;22354;-78
2021/06/08 10:15:24;;;;;;;1.57;0.65;;;;;;;24.28;52.52;99559.37;1757387;81;21294;-78
2021/06/08 10:18:34;;;;;;;2.87;0.98;;;;;;;24.32;52.26;99561.88;1747839;81;21358;-79
2021/06/08 10:21:47;;;;;;;1.20;0.90;;;;;;;24.36;51.60;99562.45;1733607;81;21397;-78
2021/06/08 10:24:52;;;;;;;2.05;0.60;;;;;;;24.53;51.97;99564.91;1747352;81;21291;-77
2021/06/08 10:27:57;;;;;;;2.30;0.70;;;;;;;24.68;50.93;99577.41;1752333;81;21290;-78
2021/06/08 10:31:03;;;;;;;3.75;2.02;;;;;;;24.78;51.55;99586.30;1751372;81;21969;-81
2021/06/08 10:34:13;;;;;;;12.37;3.08;;;;;;;24.82;53.19;99578.19;1749534;80;21359;-78
2021/06/08 10:37:19;;;;;;;4.65;2.60;;;;;;;24.59;53.45;99562.35;1750150;81;22158;-77
2021/06/08 10:40:24;;;;;;;5.67;1.85;;;;;;;24.22;54.10;99557.99;1753979;81;21516;-78
2021/06/08 10:43:37;;;;;;;1.80;1.50;;;;;;;23.72;53.35;99568.73;1712359;81;21870;-78
2021/06/08 10:46:44;;;;;;;6.78;1.35;;;;;;;23.33;53.10;99567.86;1747798;81;21624;-78
2021/06/08 10:49:49;;;;;;;1.95;1.22;;;;;;;23.22;52.23;99571.77;1747616;80;21889;-77
2021/06/08 10:52:58;;;;;;;2.47;1.60;;;;;;;23.20;52.37;99581.81;1752227;81;21284;-77
2021/06/08 10:56:03;;;;;;;2.02;1.00;;;;;;;23.00;55.23;99587.91;1747213;80;21570;-77
2021/06/08 10:59:14;;;;;;;7.28;1.20;;;;;;;22.55;56.57;99576.32;1752550;81;21327;-77
2021/06/08 11:02:21;;;;;;;2.47;1.05;;;;;;;21.95;57.77;99578.48;1748409;81;22406;-77
2021/06/08 11:05:28;;;;;;;5.35;1.40;;;;;;;21.31;59.48;99580.48;1736707;81;21382;-78
2021/06/08 11:09:15;;;;;;;8.15;2.12;;;;;;;20.90;61.48;99575.91;1723137;82;21196;-78
2021/06/08 11:12:27;;;;;;;4.10;1.52;;;;;;;20.72;63.80;99581.81;1738260;81;21216;-78
2021/06/08 11:15:33;;;;;;;7.97;1.50;;;;;;;20.63;65.69;99589.77;1734125;82;21307;-78
2021/06/08 11:18:48;;;;;;;3.00;1.70;;;;;;;20.59;66.16;99586.66;1738414;81;21343;-79
2021/06/08 11:21:56;;;;;;;4.78;1.70;;;;;;;20.63;67.32;99589.21;1734233;81;21220;-78
2021/06/08 11:25:00;;;;;;;2.83;1.65;;;;;;;20.76;67.15;99579.64;1699063;82;21306;-77
2021/06/08 11:28:15;;;;;;;7.35;1.37;;;;;;;20.94;68.68;99570.11;1734953;82;21147;-78
2021/06/08 11:31:28;;;;;;;2.58;1.60;;;;;;;21.05;68.65;99559.92;1741480;82;21358;-78
2021/06/08 11:34:33;;;;;;;9.68;1.30;;;;;;;21.15;68.76;99566.41;1738698;82;21150;-78
2021/06/08 11:38:03;;;;;;;3.45;1.22;;;;;;;21.28;67.34;99586.56;1708755;82;21193;-79
2021/06/08 11:41:17;;;;;;;6.67;1.95;;;;;;;21.46;67.74;99587.59;1730348;81;21528;-79
2021/06/08 11:44:29;;;;;;;4.47;1.02;;;;;;;21.63;69.62;99584.09;1739457;81;21310;-77
2021/06/08 11:47:44;;;;;;;4.03;1.10;;;;;;;21.61;71.11;99596.06;1738905;82;21342;-79
2021/06/08 11:50:52;;;;;;;3.85;1.80;;;;;;;21.62;71.24;99599.67;1740409;82;21157;-79
2021/06/08 11:54:18;;;;;;;4.40;1.60;;;;;;;21.61;70.18;99586.32;1735951;82;21675;-76
2021/06/08 11:57:44;;;;;;;1.20;1.10;;;;;;;21.61;69.27;99582.70;1679573;82;21232;-75
2021/06/08 12:00:53;;;;;;;3.98;1.25;;;;;;;21.52;69.05;99596.82;1732642;81;21268;-77
2021/06/08 12:04:07;;;;;;;10.08;1.70;;;;;;;21.61;68.88;99607.19;1736577;81;21300;-77
2021/06/08 12:07:16;;;;;;;3.95;1.22;;;;;;;21.76;68.84;99603.69;1713378;83;21282;-76
2021/06/08 12:10:32;;;;;;;2.42;1.05;;;;;;;21.83;64.47;99591.78;1712306;83;21677;-76
2021/06/08 12:13:42;;;;;;;8.65;1.70;;;;;;;21.82;63.81;99583.67;1715898;83;21433;-77
2021/06/08 12:16:46;;;;;;;3.37;0.93;;;;;;;21.69;64.33;99581.66;1718976;83;21696;-78
2021/06/08 12:19:51;;;;;;;1.25;0.80;;;;;;;21.55;64.77;99584.61;1701276;83;21284;-78
2021/06/08 12:22:56;;;;;;;2.67;1.00;;;;;;;21.47;66.00;99580.09;1715519;83;21326;-79
2021/06/08 12:26:03;;;;;;;2.33;0.93;;;;;;;21.42;65.64;99583.11;1721151;83;21391;-78
2021/06/08 12:29:15;;;;;;;0.82;0.70;;;;;;;21.38;65.37;99572.22;1718303;83;21291;-78
2021/06/08 12:32:20;;;;;;;1.95;0.60;;;;;;;21.40;63.57;99561.66;1706300;83;21295;-78
2021/06/08 12:35:45;;;;;;;3.42;0.70;;;;;;;21.44;62.49;99551.67;1675961;83;21197;-78
2021/06/08 12:38:59;;;;;;;1.42;1.00;;;;;;;21.49;60.64;99544.48;1709117;83;21283;-79
2021/06/08 12:42:22;;;;;;;0.95;0.85;;;;;;;21.59;62.84;99546.77;1716289;83;21751;-78
2021/06/08 12:45:29;;;;;;;7.78;1.60;;;;;;;21.73;63.08;99558.84;1721712;83;21198;-79
2021/06/08 12:48:34;;;;;;;4.47;1.47;;;;;;;21.78;65.73;99567.22;1699620;83;21347;-79
2021/06/08 12:51:46;;;;;;;3.37;1.37;;;;;;;21.80;67.87;99583.13;1704440;84;21302;-78
2021/06/08 12:54:55;;;;;;;2.45;1.10;;;;;;;21.83;68.26;99582.04;1700351;84;21299;-78
2021/06/08 12:58:03;;;;;;;1.82;1.20;;;;;;;21.91;69.16;99578.73;1704751;84;21955;-77
2021/06/08 13:01:08;;;;;;;2.52;1.15;;;;;;;22.03;69.39;99577.15;1706104;84;21292;-78
2021/06/08 13:04:14;;;;;;;4.97;1.47;;;;;;;22.11;70.00;99583.64;1690195;84;21370;-77
2021/06/08 13:07:28;;;;;;;4.75;1.40;;;;;;;22.20;69.96;99588.12;1720146;81;21185;-78
2021/06/08 13:10:36;;;;;;;2.35;1.27;;;;;;;22.28;68.90;99582.60;1794307;79;21787;-77
2021/06/08 13:13:41;;;;;;;7.60;1.27;;;;;;;22.27;68.20;99584.55;1804713;78;21221;-78
2021/06/08 13:16:47;;;;;;;5.25;1.37;;;;;;;22.16;68.34;99586.45;1803825;79;21281;-78
2021/06/08 13:19:53;;;;;;;3.98;1.40;;;;;;;22.04;68.99;99587.17;1786581;79;21350;-77
2021/06/08 13:22:59;;;;;;;2.70;1.10;;;;;;;21.88;69.01;99599.33;1740789;82;21358;-78
2021/06/08 13:26:12;;;;;;;3.40;1.37;;;;;;;21.64;69.94;99598.84;1795819;79;21291;-77
2021/06/08 13:29:31;;;;;;;8.80;3.22;;;;;;;21.42;70.76;99602.58;1742791;82;21842;-77
2021/06/08 13:32:41;;;;;;;6.97;1.50;;;;;;;21.14;72.21;99603.67;1779511;80;21307;-78
2021/06/08 13:35:49;;;;;;;1.47;0.98;;;;;;;20.76;72.38;99606.59;1741949;82;21330;-77
2021/06/08 13:38:55;;;;;;;1.45;1.07;;;;;;;20.38;73.19;99601.38;1800255;79;21247;-77
2021/06/08 13:42:01;;;;;;;4.20;1.22;;;;;;;20.07;74.25;99598.72;1809108;79;21361;-78
2021/06/08 13:45:10;;;;;;;3.12;1.40;;;;;;;19.76;76.23;99592.73;1778454;80;21338;-78
2021/06/08 13:48:38;;;;;;;8.13;2.00;;;;;;;19.51;77.49;99584.79;1781763;80;21157;-77
2021/06/08 13:51:41;;;;;;;2.85;1.67;;;;;;;19.30;78.34;99573.08;1781570;80;21920;-78
2021/06/08 13:54:47;;;;;;;6.30;1.17;;;;;;;19.22;78.67;99558.23;1779718;80;21189;-78
2021/06/08 14:00:17;;;;;;;9.58;1.35;;;;;;;19.21;79.10;99556.56;1781305;80;21303;-77
2021/06/08 14:01:12;;;;;;;3.65;1.17;;;;;;;19.22;79.36;99543.83;1781104;80;21302;-77
2021/06/08 14:04:25;;;;;;;3.67;1.10;;;;;;;19.26;80.08;99542.23;1781299;80;21610;-78
2021/06/08 14:07:35;;;;;;;3.17;1.30;;;;;;;19.35;80.59;99537.12;1778322;80;21346;-78
2021/06/08 14:10:42;;;;;;;3.12;1.47;;;;;;;19.42;80.45;99535.00;1778733;80;21192;-77
2021/06/08 14:13:48;;;;;;;5.22;1.30;;;;;;;19.51;80.41;99542.34;1778439;80;21318;-77
2021/06/08 14:16:55;;;;;;;4.22;1.10;;;;;;;19.63;80.84;99534.27;1779879;80;21311;-77
2021/06/08 14:20:00;;;;;;;3.70;1.02;;;;;;;19.77;80.17;99543.63;1779297;80;21306;-77
2021/06/08 14:23:05;;;;;;;1.90;1.10;;;;;;;19.83;79.75;99532.33;1778543;80;21334;-78
2021/06/08 14:26:20;;;;;;;5.97;1.10;;;;;;;19.93;80.35;99526.63;1779440;80;21295;-78
2021/06/08 14:29:25;;;;;;;1.42;0.90;;;;;;;20.00;80.21;99515.64;1779478;80;21308;-78
2021/06/08 14:32:30;;;;;;;1.72;0.90;;;;;;;20.10;79.23;99513.55;1779083;80;21204;-78
2021/06/08 14:35:36;;;;;;;3.92;0.98;;;;;;;20.16;78.24;99509.17;1778344;80;21319;-78
2021/06/08 14:38:42;;;;;;;1.85;1.00;;;;;;;20.14;77.35;99501.67;1777933;80;21248;-78
2021/06/08 14:41:47;;;;;;;2.20;1.10;;;;;;;20.06;76.95;99497.95;1779330;80;21294;-77
2021/06/08 14:44:54;;;;;;;1.92;1.10;;;;;;;20.01;76.91;99493.72;1778132;80;21334;-77